Main page
METAR-TAF:

METAR-TAF

Airports :

George Best Belfast City Airport

Belfast City, Northern Ireland

latitude: 54-36N, longitude: 005-53W, elevation: 5 m

Current weather observation

The report was made 32 minutes ago, at 01:50 UTC
Wind 3 kt from the South, varying between South/Southeast and Southwest
Temperature 6°C
Humidity 87%
Pressure 1008 hPa
Visibility: 9000 m

METAR: EGAC 210150Z AUTO 19003KT 160V220 9000 NCD 06/04 Q1008

Time: 02:22 (02:22 UTC)

Forecast

The report was made 9 hours and 20 minutes ago, at 17:02 UTC
Forecast valid from 20 at 18 UTC to 20 at 22 UTC
Wind 12 kt from the West
Visibility 10 km or more
Few clouds at a height of 3000 ft
Becoming
from 20 at 18 UTC to 20 at 22 UTC
Wind 8 kt from the South

TAF: EGAC 201702Z 2018/2022 26012KT 9999 FEW030 BECMG 2018/2022 18008KT

Weather observations and forecasts of more than 4000 airports (METAR and TAF reports).

The available stations are represented by yellow and red dots on the map.

Hover mouse over dot to see the name of the station.

Then click to see weather observations and forecasts.

To change the map : click on the green buttons with a black cross to zoom in, on the green button with a dash to zoom out, or on the green arrows for adjacent maps.


METAR-TAF: